createdAt,value
2019-02-12T00:01:47.581Z,100981.11
2019-02-12T00:04:19.250Z,100980.50
2019-02-12T00:06:50.952Z,100975.50
2019-02-12T00:09:22.841Z,100977.51
2019-02-12T00:11:54.599Z,100983.77
2019-02-12T00:14:26.354Z,100985.47
2019-02-12T00:16:57.953Z,100993.05
2019-02-12T00:19:29.600Z,100990.56
2019-02-12T00:22:01.187Z,100997.03
2019-02-12T00:24:32.846Z,100998.38
2019-02-12T00:27:04.512Z,101008.98
2019-02-12T00:29:36.069Z,100991.78
2019-02-12T00:32:07.725Z,101006.97
2019-02-12T00:34:39.297Z,101008.87
2019-02-12T00:37:10.965Z,101017.39
2019-02-12T00:39:42.547Z,101016.89
2019-02-12T00:42:14.232Z,101021.88
2019-02-12T00:44:45.790Z,101020.65
2019-02-12T00:47:17.375Z,101028.51
2019-02-12T00:49:49.028Z,101027.27
2019-02-12T00:52:20.908Z,101040.85
2019-02-12T00:54:52.818Z,101037.06
2019-02-12T00:57:24.411Z,101037.70
2019-02-12T00:59:56.070Z,101042.75
2019-02-12T01:02:27.745Z,101042.78
2019-02-12T01:04:59.331Z,101048.81
2019-02-12T01:07:30.924Z,101043.41
2019-02-12T01:10:02.525Z,101045.69
2019-02-12T01:12:34.183Z,101054.02
2019-02-12T01:15:07.021Z,101050.55
2019-02-12T01:17:38.612Z,101047.48
2019-02-12T01:20:11.677Z,101054.52
2019-02-12T01:22:43.246Z,101051.72
2019-02-12T01:25:14.822Z,101059.52
2019-02-12T01:27:46.395Z,101063.36
2019-02-12T01:30:18.086Z,101063.27
2019-02-12T01:32:49.750Z,101063.17
2019-02-12T01:35:21.326Z,101065.86
2019-02-12T01:37:53.146Z,101073.25
2019-02-12T01:40:24.726Z,101073.31
2019-02-12T01:42:56.340Z,101073.91
2019-02-12T01:45:27.900Z,101073.31
2019-02-12T01:47:59.487Z,101075.65
2019-02-12T01:50:31.134Z,101079.69
2019-02-12T01:53:02.723Z,101079.62
2019-02-12T01:55:34.317Z,101069.74
2019-02-12T01:58:05.989Z,101075.65
2019-02-12T02:00:37.576Z,101069.08
2019-02-12T02:03:09.443Z,101074.39
2019-02-12T02:05:41.101Z,101077.36
2019-02-12T02:08:12.747Z,101086.26
2019-02-12T02:10:44.407Z,101087.49
2019-02-12T02:13:16.081Z,101073.41
2019-02-12T02:15:47.736Z,101072.80
2019-02-12T02:18:19.318Z,101079.88
2019-02-12T02:20:51.005Z,101076.31
2019-02-12T02:23:22.865Z,101083.33
2019-02-12T02:25:54.453Z,101085.06
2019-02-12T02:28:26.124Z,101092.01
2019-02-12T02:30:57.783Z,101099.30
2019-02-12T02:33:29.392Z,101090.02
2019-02-12T02:36:00.953Z,101102.21
2019-02-12T02:38:32.601Z,101099.36
2019-02-12T02:41:04.248Z,101104.45
2019-02-12T02:43:35.997Z,101104.55
2019-02-12T02:46:08.640Z,101117.31
2019-02-12T02:48:40.330Z,101103.41
2019-02-12T02:51:11.914Z,101109.25
2019-02-12T02:53:43.785Z,101121.70
2019-02-12T02:56:16.366Z,101123.02
2019-02-12T02:58:48.066Z,101116.39
2019-02-12T03:01:19.815Z,101125.59
2019-02-12T03:03:51.489Z,101126.91
2019-02-12T03:06:23.228Z,101130.45
2019-02-12T03:08:54.925Z,101132.53
2019-02-12T03:11:26.562Z,101140.69
2019-02-12T03:13:59.311Z,101146.41
2019-02-12T03:16:30.918Z,101150.98
2019-02-12T03:19:02.590Z,101149.72
2019-02-12T03:21:34.210Z,101151.05
2019-02-12T03:24:05.814Z,101157.53
2019-02-12T03:26:37.448Z,101159.17
2019-02-12T03:29:09.057Z,101168.87
2019-02-12T03:31:40.628Z,101166.80
2019-02-12T03:34:12.307Z,101173.69
2019-02-12T03:36:43.917Z,101164.99
2019-02-12T03:39:15.587Z,101178.25
2019-02-12T03:41:47.246Z,101184.48
2019-02-12T03:44:19.066Z,101182.00
2019-02-12T03:46:50.662Z,101189.05
2019-02-12T03:49:22.337Z,101181.65
2019-02-12T03:51:54.076Z,101189.61
2019-02-12T03:54:26.023Z,101189.39
2019-02-12T03:56:57.594Z,101199.92
2019-02-12T03:59:29.268Z,101191.22
2019-02-12T04:02:00.909Z,101199.50
2019-02-12T04:04:32.582Z,101197.84
2019-02-12T04:07:04.230Z,101193.78
2019-02-12T04:09:35.902Z,101193.93
2019-02-12T04:12:07.488Z,101198.97
2019-02-12T04:14:39.231Z,101194.59
2019-02-12T04:17:10.830Z,101192.01
2019-02-12T04:19:42.498Z,101184.14
2019-02-12T04:22:22.214Z,101193.92
2019-02-12T04:24:47.431Z,101195.66
2019-02-12T04:27:19.068Z,101194.69
2019-02-12T04:29:50.679Z,101189.30
2019-02-12T04:32:22.262Z,101198.80
2019-02-12T04:34:54.093Z,101195.59
2019-02-12T04:37:26.031Z,101199.16
2019-02-12T04:39:57.704Z,101200.90
2019-02-12T04:42:29.344Z,101198.39
2019-02-12T04:45:01.095Z,101202.03
2019-02-12T04:47:32.839Z,101200.27
2019-02-12T04:50:04.799Z,101205.60
2019-02-12T04:52:36.460Z,101207.83
2019-02-12T04:55:09.319Z,101201.68
2019-02-12T04:57:40.971Z,101209.24
2019-02-12T05:00:14.026Z,101211.40
2019-02-12T05:02:46.583Z,101218.00
2019-02-12T05:05:18.247Z,101214.73
2019-02-12T05:07:50.123Z,101212.56
2019-02-12T05:10:22.404Z,101220.87
2019-02-12T05:12:54.097Z,101225.73
2019-02-12T05:15:26.031Z,101219.46
2019-02-12T05:17:57.684Z,101221.78
2019-02-12T05:20:29.245Z,101225.26
2019-02-12T05:23:00.824Z,101226.98
2019-02-12T05:25:32.473Z,101242.55
2019-02-12T05:28:04.109Z,101236.36
2019-02-12T05:30:35.698Z,101237.27
2019-02-12T05:33:07.354Z,101244.31
2019-02-12T05:35:38.925Z,101245.20
2019-02-12T05:38:11.091Z,101249.53
2019-02-12T05:40:42.779Z,101255.75
2019-02-12T05:43:14.363Z,101254.34
2019-02-12T05:45:46.067Z,101259.15
2019-02-12T05:48:17.659Z,101270.50
2019-02-12T05:50:49.365Z,101266.58
2019-02-12T05:53:21.172Z,101255.01
2019-02-12T05:55:53.102Z,101271.20
2019-02-12T05:58:25.127Z,101274.59
2019-02-12T06:00:56.893Z,101268.52
2019-02-12T06:03:28.476Z,101271.83
2019-02-12T06:06:00.062Z,101276.61
2019-02-12T06:08:31.644Z,101280.06
2019-02-12T06:11:03.262Z,101280.09
2019-02-12T06:13:34.923Z,101283.56
2019-02-12T06:16:06.601Z,101287.44
2019-02-12T06:18:38.181Z,101295.75
2019-02-12T06:21:11.298Z,101301.41
2019-02-12T06:23:42.848Z,101303.48
2019-02-12T06:26:14.523Z,101318.38
2019-02-12T06:28:46.171Z,101313.66
2019-02-12T06:31:17.802Z,101321.95
2019-02-12T06:33:49.396Z,101322.36
2019-02-12T06:36:21.118Z,101328.50
2019-02-12T06:38:52.920Z,101332.42
2019-02-12T06:41:24.524Z,101348.17
2019-02-12T06:43:56.112Z,101354.42
2019-02-12T06:46:29.445Z,101345.94
2019-02-12T06:49:01.093Z,101346.02
2019-02-12T06:51:32.680Z,101361.53
2019-02-12T06:54:04.670Z,101371.64
2019-02-12T06:56:36.265Z,101371.98
2019-02-12T06:59:07.883Z,101380.62
2019-02-12T07:01:39.488Z,101379.53
2019-02-12T07:04:14.433Z,101376.73
2019-02-12T07:07:20.442Z,101383.86
2019-02-12T07:10:12.577Z,101389.56
2019-02-12T07:13:24.452Z,101389.09
2019-02-12T07:16:21.121Z,101398.16
2019-02-12T07:19:24.563Z,101397.83
2019-02-12T07:22:33.302Z,101403.66
2019-02-12T07:25:42.262Z,101404.35
2019-02-12T07:28:38.220Z,101404.30
2019-02-12T07:31:51.845Z,101422.11
2019-02-12T07:35:17.315Z,101412.98
2019-02-12T07:38:20.467Z,101423.13
2019-02-12T07:41:51.883Z,101428.49
2019-02-12T07:45:07.646Z,101427.58
2019-02-12T07:48:23.578Z,101423.45
2019-02-12T07:51:23.642Z,101431.36
2019-02-12T07:54:29.332Z,101448.28
2019-02-12T07:57:47.328Z,101449.56
2019-02-12T08:00:58.373Z,101463.05
2019-02-12T08:04:44.371Z,101489.14
2019-02-12T08:08:16.084Z,101487.15
2019-02-12T08:11:30.089Z,101482.19
2019-02-12T08:14:32.683Z,101484.61
2019-02-12T08:17:40.839Z,101502.13
2019-02-12T08:20:56.920Z,101492.80
2019-02-12T08:24:08.074Z,101498.73
2019-02-12T08:26:59.304Z,101501.50
2019-02-12T08:30:13.793Z,101509.25
2019-02-12T08:33:29.719Z,101505.94
2019-02-12T08:36:18.701Z,101514.24
2019-02-12T08:39:34.026Z,101518.41
2019-02-12T08:42:33.589Z,101510.58
2019-02-12T08:45:43.705Z,101514.00
2019-02-12T08:49:01.072Z,101515.56
2019-02-12T08:52:06.670Z,101515.22
2019-02-12T08:55:04.338Z,101527.71
2019-02-12T08:58:10.407Z,101528.27
2019-02-12T09:01:27.798Z,101530.75
2019-02-12T09:04:52.301Z,101532.69
2019-02-12T09:07:59.230Z,101527.78
2019-02-12T09:11:06.221Z,101547.93
2019-02-12T09:14:05.386Z,101543.47
2019-02-12T09:17:13.873Z,101552.37
2019-02-12T09:20:31.287Z,101561.23
2019-02-12T09:23:41.688Z,101567.23
2019-02-12T09:26:34.054Z,101576.23
2019-02-12T09:29:26.182Z,101581.77
2019-02-12T09:32:53.985Z,101578.17
2019-02-12T09:35:49.006Z,101577.84
2019-02-12T09:39:10.785Z,101597.62
2019-02-12T09:41:58.658Z,101586.88
2019-02-12T09:45:05.476Z,101593.82
2019-02-12T09:48:08.350Z,101603.58
2019-02-12T09:50:58.086Z,101609.41
2019-02-12T09:54:21.807Z,101608.43
2019-02-12T09:57:34.701Z,101613.88
2019-02-12T10:00:34.430Z,101622.15
2019-02-12T10:03:48.577Z,101621.09
2019-02-12T10:06:55.686Z,101624.24
2019-02-12T10:10:08.765Z,101637.27
2019-02-12T10:13:22.769Z,101641.38
2019-02-12T10:16:31.353Z,101641.14
2019-02-12T10:19:38.679Z,101641.50
2019-02-12T10:22:39.227Z,101641.91
2019-02-12T10:25:34.721Z,101642.63
2019-02-12T10:28:59.150Z,101647.78
2019-02-12T10:31:49.060Z,101660.95
2019-02-12T10:34:20.890Z,101653.53
2019-02-12T10:36:52.817Z,101670.05
2019-02-12T10:39:24.646Z,101670.24
2019-02-12T10:41:56.581Z,101665.22
2019-02-12T10:44:28.195Z,101667.09
2019-02-12T10:46:59.851Z,101656.69
2019-02-12T10:49:31.610Z,101671.13
2019-02-12T10:52:03.357Z,101660.09
2019-02-12T10:54:35.999Z,101654.70
2019-02-12T10:57:07.655Z,101659.60
2019-02-12T10:59:39.241Z,101650.70
2019-02-12T11:02:11.920Z,101654.80
2019-02-12T11:04:43.588Z,101645.59
2019-02-12T11:07:15.190Z,101656.79
2019-02-12T11:09:46.785Z,101669.31
2019-02-12T11:12:18.654Z,101668.44
2019-02-12T11:14:50.590Z,101668.67
2019-02-12T11:17:22.249Z,101679.42
2019-02-12T11:19:53.857Z,101678.96
2019-02-12T11:22:25.478Z,101681.93
2019-02-12T11:24:57.154Z,101686.64
2019-02-12T11:27:28.741Z,101690.91
2019-02-12T11:32:49.885Z,101696.39
2019-02-12T11:35:21.823Z,101699.95
2019-02-12T11:37:53.745Z,101703.39
2019-02-12T11:40:25.358Z,101697.11
2019-02-12T11:42:57.100Z,101700.55
2019-02-12T11:45:28.781Z,101704.28
2019-02-12T11:48:00.451Z,101710.41
2019-02-12T11:50:32.068Z,101709.92
2019-02-12T11:53:03.743Z,101719.02
2019-02-12T11:55:36.415Z,101724.15
2019-02-12T11:58:08.069Z,101721.86
2019-02-12T12:01:04.656Z,101724.22
2019-02-12T12:03:36.314Z,101723.02
2019-02-12T12:06:07.905Z,101731.02
2019-02-12T12:08:39.498Z,101729.70
2019-02-12T12:11:11.192Z,101733.27
2019-02-12T12:13:42.873Z,101729.91
2019-02-12T12:16:14.503Z,101740.41
2019-02-12T12:18:46.165Z,101740.25
2019-02-12T12:21:17.781Z,101751.27
2019-02-12T12:23:49.375Z,101749.77
2019-02-12T12:26:20.972Z,101753.62
2019-02-12T12:28:52.907Z,101752.13
2019-02-12T12:31:24.747Z,101752.25
2019-02-12T12:33:57.839Z,101760.53
2019-02-12T12:36:29.465Z,101761.80
2019-02-12T12:39:01.097Z,101770.88
2019-02-12T12:41:34.321Z,101762.69
2019-02-12T12:44:05.989Z,101763.73
2019-02-12T12:46:37.688Z,101763.95
2019-02-12T12:49:09.347Z,101769.58
2019-02-12T12:51:41.026Z,101768.22
2019-02-12T12:54:12.689Z,101773.56
2019-02-12T12:56:44.383Z,101774.99
2019-02-12T12:59:16.056Z,101779.13
2019-02-12T13:01:47.831Z,101782.69
2019-02-12T13:04:19.480Z,101779.71
2019-02-12T13:06:51.170Z,101777.87
2019-02-12T13:09:22.824Z,101783.38
2019-02-12T13:11:54.752Z,101794.00
2019-02-12T13:14:26.653Z,101788.36
2019-02-12T13:16:58.264Z,101797.69
2019-02-12T13:19:29.845Z,101801.18
2019-02-12T13:22:02.901Z,101806.61
2019-02-12T13:24:34.586Z,101814.52
2019-02-12T13:27:08.185Z,101821.59
2019-02-12T13:29:42.244Z,101820.05
2019-02-12T13:32:16.182Z,101824.84
2019-02-12T13:34:50.510Z,101827.55
2019-02-12T13:37:25.084Z,101835.52
2019-02-12T13:39:57.634Z,101838.20
2019-02-12T13:42:30.362Z,101847.19
2019-02-12T13:45:02.077Z,101845.60
2019-02-12T13:47:35.252Z,101847.88
2019-02-12T13:50:07.887Z,101853.35
2019-02-12T13:52:40.021Z,101851.84
2019-02-12T13:55:17.443Z,101862.97
2019-02-12T13:57:46.707Z,101859.89
2019-02-12T14:00:18.634Z,101863.50
2019-02-12T14:02:51.005Z,101873.25
2019-02-12T14:05:23.217Z,101873.89
2019-02-12T14:07:55.256Z,101873.89
2019-02-12T14:10:26.935Z,101878.14
2019-02-12T14:12:59.404Z,101885.17
2019-02-12T14:15:33.786Z,101892.23
2019-02-12T14:18:06.172Z,101887.35
2019-02-12T14:20:39.061Z,101888.83
2019-02-12T14:23:10.991Z,101897.72
2019-02-12T14:25:43.025Z,101890.99
2019-02-12T14:28:16.038Z,101901.06
2019-02-12T14:30:47.806Z,101911.82
2019-02-12T14:33:19.551Z,101896.33
2019-02-12T14:35:51.625Z,101910.39
2019-02-12T14:38:25.990Z,101907.45
2019-02-12T14:40:58.132Z,101916.50
2019-02-12T14:43:32.471Z,101913.61
2019-02-12T14:46:04.625Z,101919.08
2019-02-12T14:48:36.862Z,101916.09
2019-02-12T14:51:09.295Z,101917.73
2019-02-12T14:53:42.634Z,101914.90
2019-02-12T14:56:14.265Z,101924.74
2019-02-12T14:58:47.462Z,101922.81
2019-02-12T15:01:19.776Z,101932.62
2019-02-12T15:03:51.916Z,101921.72
2019-02-12T15:06:24.330Z,101942.48
2019-02-12T15:08:56.143Z,101941.24
2019-02-12T15:11:27.957Z,101950.98
2019-02-12T15:13:59.732Z,101943.05
2019-02-12T15:16:31.586Z,101945.75
2019-02-12T15:19:03.657Z,101952.20
2019-02-12T15:21:35.585Z,101952.00
2019-02-12T15:24:07.918Z,101960.05
2019-02-12T15:26:39.860Z,101960.64
2019-02-12T15:29:12.203Z,101966.98
2019-02-12T15:31:44.373Z,101968.31
2019-02-12T15:34:16.371Z,101970.20
2019-02-12T15:36:48.167Z,101977.03
2019-02-12T15:39:19.901Z,101978.26
2019-02-12T15:41:53.242Z,101982.25
2019-02-12T15:44:27.046Z,101984.72
2019-02-12T15:47:00.888Z,101984.74
2019-02-12T15:49:33.684Z,101996.92
2019-02-12T15:52:05.644Z,102001.49
2019-02-12T15:54:38.068Z,101994.50
2019-02-12T15:57:10.110Z,102002.28
2019-02-12T15:59:41.811Z,102005.38
2019-02-12T16:02:13.723Z,102008.53
2019-02-12T16:04:50.189Z,102017.49
2019-02-12T16:07:24.318Z,102018.01
2019-02-12T16:09:57.046Z,102027.92
2019-02-12T16:12:29.168Z,102028.44
2019-02-12T16:15:01.743Z,102036.97
2019-02-12T16:17:36.924Z,102047.61
2019-02-12T16:20:10.143Z,102050.30
2019-02-12T16:22:43.091Z,102050.54
2019-02-12T16:25:16.769Z,102053.71
2019-02-12T16:27:51.559Z,102059.10
2019-02-12T16:30:23.303Z,102057.94
2019-02-12T16:32:58.475Z,102060.62
2019-02-12T16:35:31.212Z,102062.93
2019-02-12T16:38:03.936Z,102065.23
2019-02-12T16:40:36.174Z,102072.36
2019-02-12T16:43:07.871Z,102077.25
2019-02-12T16:45:53.097Z,102084.45
2019-02-12T16:48:26.382Z,102085.91
2019-02-12T16:50:58.582Z,102093.41
2019-02-12T16:53:36.522Z,102099.27
2019-02-12T16:56:12.434Z,102097.95
2019-02-12T16:58:45.036Z,102109.86
2019-02-12T17:01:17.279Z,102108.16
2019-02-12T17:03:49.403Z,102115.88
2019-02-12T17:06:21.740Z,102119.45
2019-02-12T17:08:54.556Z,102118.66
2019-02-12T17:11:26.227Z,102117.81
2019-02-12T17:13:59.682Z,102130.20
2019-02-12T17:16:33.381Z,102133.45
2019-02-12T17:19:06.094Z,102133.94
2019-02-12T17:21:38.035Z,102143.30
2019-02-12T17:24:11.038Z,102144.08
2019-02-12T17:26:43.016Z,102155.16
2019-02-12T17:29:15.203Z,102156.31
2019-02-12T17:31:46.925Z,102161.05
2019-02-12T17:34:18.599Z,102164.93
2019-02-12T17:36:52.180Z,102168.77
2019-02-12T17:39:24.964Z,102168.66
2019-02-12T17:41:56.772Z,102171.53
2019-02-12T17:44:28.819Z,102173.45
2019-02-12T17:47:00.686Z,102171.80
2019-02-12T17:49:32.808Z,102175.95
2019-02-12T17:52:04.883Z,102180.83
2019-02-12T17:54:36.636Z,102176.05
2019-02-12T17:57:08.332Z,102186.45
2019-02-12T17:59:41.653Z,102184.70
2019-02-12T18:02:14.050Z,102189.24
2019-02-12T18:04:46.621Z,102189.62
2019-02-12T18:07:18.849Z,102182.45
2019-02-12T18:09:51.104Z,102185.69
2019-02-12T18:12:23.913Z,102190.09
2019-02-12T18:14:56.073Z,102194.51
2019-02-12T18:17:27.911Z,102193.75
2019-02-12T18:20:00.831Z,102200.88
2019-02-12T18:22:34.447Z,102204.38
2019-02-12T18:25:07.481Z,102207.27
2019-02-12T18:27:40.687Z,102207.74
2019-02-12T18:30:14.350Z,102214.34
2019-02-12T18:32:46.127Z,102220.55
2019-02-12T18:35:18.243Z,102221.92
2019-02-12T18:37:50.422Z,102225.39
2019-02-12T18:40:22.183Z,102231.64
2019-02-12T18:42:56.278Z,102232.97
2019-02-12T18:45:28.679Z,102237.59
2019-02-12T18:48:01.241Z,102237.25
2019-02-12T18:50:33.521Z,102238.92
2019-02-12T18:53:05.899Z,102238.92
2019-02-12T18:55:38.211Z,102244.36
2019-02-12T18:58:10.455Z,102245.22
2019-02-12T19:00:42.137Z,102243.94
2019-02-12T19:03:13.791Z,102242.99
2019-02-12T19:05:48.353Z,102251.05
2019-02-12T19:08:20.830Z,102249.67
2019-02-12T19:10:53.003Z,102255.38
2019-02-12T19:13:25.367Z,102255.38
2019-02-12T19:15:57.422Z,102259.80
2019-02-12T19:18:29.524Z,102256.75
2019-02-12T19:21:01.553Z,102259.41
2019-02-12T19:23:33.224Z,102262.15
2019-02-12T19:26:05.823Z,102262.19
2019-02-12T19:28:39.722Z,102268.40
2019-02-12T19:31:12.021Z,102270.28
2019-02-12T19:33:47.029Z,102268.09
2019-02-12T19:36:21.174Z,102271.69
2019-02-12T19:38:53.560Z,102268.56
2019-02-12T19:41:25.658Z,102270.48
2019-02-12T19:43:57.734Z,102275.28
2019-02-12T19:46:29.393Z,102273.48
2019-02-12T19:49:20.158Z,102279.11
2019-02-12T19:51:52.647Z,102281.84
2019-02-12T19:54:25.137Z,102284.02
2019-02-12T19:56:58.586Z,102292.42
2019-02-12T19:59:30.623Z,102295.90
2019-02-12T20:02:02.713Z,102299.76
2019-02-12T20:04:34.632Z,102295.81
2019-02-12T20:07:06.261Z,102295.66
2019-02-12T20:09:37.995Z,102295.14
2019-02-12T20:12:12.684Z,102300.19
2019-02-12T20:14:47.988Z,102295.31
2019-02-12T20:17:20.888Z,102296.98
2019-02-12T20:19:53.072Z,102300.07
2019-02-12T20:22:25.774Z,102305.46
2019-02-12T20:24:58.039Z,102308.94
2019-02-12T20:27:36.113Z,102307.61
2019-02-12T20:30:10.643Z,102303.58
2019-02-12T20:32:44.415Z,102308.98
2019-02-12T20:35:18.025Z,102314.84
2019-02-12T20:37:50.316Z,102314.53
2019-02-12T20:40:22.106Z,102311.44
2019-02-12T20:42:54.047Z,102309.38
2019-02-12T20:45:26.225Z,102310.27
2019-02-12T20:47:58.025Z,102312.42
2019-02-12T20:50:29.744Z,102312.96
2019-02-12T20:53:01.423Z,102310.84
2019-02-12T20:55:34.392Z,102313.61
2019-02-12T20:58:06.821Z,102312.81
2019-02-12T21:00:38.871Z,102315.41
2019-02-12T21:03:11.209Z,102307.05
2019-02-12T21:05:44.727Z,102316.27
2019-02-12T21:08:16.584Z,102318.88
2019-02-12T21:10:50.146Z,102316.19
2019-02-12T21:13:23.318Z,102317.09
2019-02-12T21:15:55.713Z,102314.94
2019-02-12T21:18:29.105Z,102320.68
2019-02-12T21:21:01.144Z,102321.14
2019-02-12T21:23:34.885Z,102313.61
2019-02-12T21:26:07.619Z,102317.05
2019-02-12T21:28:39.615Z,102319.20
2019-02-12T21:31:12.004Z,102317.92
2019-02-12T21:33:43.984Z,102308.19
2019-02-12T21:36:16.780Z,102302.45
2019-02-12T21:38:48.838Z,102307.77
2019-02-12T21:41:20.999Z,102310.56
2019-02-12T21:43:57.332Z,102319.88
2019-02-12T21:46:30.763Z,102319.45
2019-02-12T21:49:06.638Z,102319.55
2019-02-12T21:51:38.382Z,102317.80
2019-02-12T21:54:11.174Z,102313.39
2019-02-12T21:56:43.004Z,102317.40
2019-02-12T21:59:15.098Z,102316.91
2019-02-12T22:01:46.737Z,102308.51
2019-02-12T22:04:19.666Z,102313.78
2019-02-12T22:06:51.893Z,102316.41
2019-02-12T22:09:23.959Z,102317.33
2019-02-12T22:11:55.712Z,102317.77
2019-02-12T22:14:27.493Z,102323.50
2019-02-12T22:16:59.391Z,102328.31
2019-02-12T22:19:31.070Z,102336.34
2019-02-12T22:22:02.698Z,102329.67
2019-02-12T22:24:34.366Z,102330.56
2019-02-12T22:27:06.053Z,102334.61
2019-02-12T22:29:37.663Z,102331.96
2019-02-12T22:32:09.349Z,102331.53
2019-02-12T22:34:40.928Z,102331.00
2019-02-12T22:37:12.532Z,102326.52
2019-02-12T22:39:44.140Z,102329.64
2019-02-12T22:42:15.949Z,102334.09
2019-02-12T22:44:47.567Z,102326.98
2019-02-12T22:47:19.188Z,102328.31
2019-02-12T22:49:50.798Z,102325.66
2019-02-12T22:52:22.612Z,102324.73
2019-02-12T22:54:54.560Z,102326.13
2019-02-12T22:57:26.384Z,102334.91
2019-02-12T22:59:57.990Z,102328.75
2019-02-12T23:02:29.598Z,102324.33
2019-02-12T23:05:01.280Z,102317.70
2019-02-12T23:07:34.295Z,102312.78
2019-02-12T23:10:06.211Z,102319.84
2019-02-12T23:12:37.875Z,102320.25
2019-02-12T23:15:09.603Z,102320.61
2019-02-12T23:17:41.333Z,102329.97
2019-02-12T23:20:13.003Z,102324.16
2019-02-12T23:22:44.701Z,102330.94
2019-02-12T23:25:16.391Z,102325.69
2019-02-12T23:27:48.098Z,102331.00
2019-02-12T23:30:19.690Z,102331.96
2019-02-12T23:32:51.390Z,102338.63
2019-02-12T23:35:24.002Z,102340.02
2019-02-12T23:37:55.710Z,102342.20
2019-02-12T23:40:27.551Z,102348.81
2019-02-12T23:42:59.491Z,102345.36
2019-02-12T23:45:31.170Z,102341.41
2019-02-12T23:48:02.766Z,102345.88
2019-02-12T23:50:34.365Z,102340.97
2019-02-12T23:53:06.034Z,102344.49
2019-02-12T23:55:37.699Z,102349.33
2019-02-12T23:58:09.312Z,102351.44
